sensor_id;sensor_type;location;lat;lon;timestamp;P1;durP1;ratioP1;P2;durP2;ratioP2
72590;SDS011;60625;51.212;5.952;2023-07-08T00:01:44;7.10;;;2.60;;
72590;SDS011;60625;51.212;5.952;2023-07-08T00:06:44;6.60;;;2.60;;
72590;SDS011;60625;51.212;5.952;2023-07-08T00:11:45;6.20;;;2.40;;
72590;SDS011;60625;51.212;5.952;2023-07-08T00:16:45;7.90;;;2.60;;
72590;SDS011;60625;51.212;5.952;2023-07-08T00:21:46;7.30;;;2.80;;
72590;SDS011;60625;51.212;5.952;2023-07-08T00:26:47;6.50;;;2.60;;
72590;SDS011;60625;51.212;5.952;2023-07-08T00:31:47;5.50;;;2.30;;
72590;SDS011;60625;51.212;5.952;2023-07-08T00:36:48;6.10;;;2.40;;
72590;SDS011;60625;51.212;5.952;2023-07-08T00:41:49;7.40;;;2.50;;
72590;SDS011;60625;51.212;5.952;2023-07-08T00:47:03;6.90;;;3.20;;
72590;SDS011;60625;51.212;5.952;2023-07-08T00:52:19;7.70;;;3.20;;
72590;SDS011;60625;51.212;5.952;2023-07-08T00:57:24;8.70;;;3.30;;
72590;SDS011;60625;51.212;5.952;2023-07-08T01:02:30;8.50;;;2.90;;
72590;SDS011;60625;51.212;5.952;2023-07-08T01:07:36;4.90;;;2.40;;
72590;SDS011;60625;51.212;5.952;2023-07-08T01:12:45;10.70;;;3.40;;
72590;SDS011;60625;51.212;5.952;2023-07-08T01:17:48;7.90;;;2.60;;
72590;SDS011;60625;51.212;5.952;2023-07-08T01:22:53;6.90;;;2.40;;
72590;SDS011;60625;51.212;5.952;2023-07-08T01:27:55;8.00;;;2.50;;
72590;SDS011;60625;51.212;5.952;2023-07-08T01:33:00;7.50;;;2.60;;
72590;SDS011;60625;51.212;5.952;2023-07-08T01:38:05;7.00;;;3.10;;
72590;SDS011;60625;51.212;5.952;2023-07-08T01:43:11;8.20;;;2.80;;
72590;SDS011;60625;51.212;5.952;2023-07-08T01:48:15;6.60;;;3.00;;
72590;SDS011;60625;51.212;5.952;2023-07-08T01:53:28;6.60;;;2.50;;
72590;SDS011;60625;51.212;5.952;2023-07-08T01:58:33;5.50;;;2.50;;
72590;SDS011;60625;51.212;5.952;2023-07-08T02:03:35;5.30;;;2.60;;
72590;SDS011;60625;51.212;5.952;2023-07-08T02:08:36;6.00;;;2.60;;
72590;SDS011;60625;51.212;5.952;2023-07-08T02:13:36;5.70;;;2.50;;
72590;SDS011;60625;51.212;5.952;2023-07-08T02:18:37;5.50;;;2.50;;
72590;SDS011;60625;51.212;5.952;2023-07-08T02:23:38;5.20;;;2.40;;
72590;SDS011;60625;51.212;5.952;2023-07-08T02:28:38;7.60;;;3.00;;
72590;SDS011;60625;51.212;5.952;2023-07-08T02:33:39;10.90;;;3.00;;
72590;SDS011;60625;51.212;5.952;2023-07-08T02:38:40;6.10;;;2.60;;
72590;SDS011;60625;51.212;5.952;2023-07-08T02:43:41;9.90;;;3.00;;
72590;SDS011;60625;51.212;5.952;2023-07-08T02:48:42;7.50;;;2.70;;
72590;SDS011;60625;51.212;5.952;2023-07-08T02:53:43;6.80;;;3.30;;
72590;SDS011;60625;51.212;5.952;2023-07-08T02:58:43;6.50;;;2.70;;
72590;SDS011;60625;51.212;5.952;2023-07-08T03:03:45;5.90;;;2.40;;
72590;SDS011;60625;51.212;5.952;2023-07-08T03:08:46;6.90;;;2.60;;
72590;SDS011;60625;51.212;5.952;2023-07-08T03:13:46;8.00;;;2.50;;
72590;SDS011;60625;51.212;5.952;2023-07-08T03:18:47;6.70;;;2.70;;
72590;SDS011;60625;51.212;5.952;2023-07-08T03:23:49;6.80;;;3.10;;
72590;SDS011;60625;51.212;5.952;2023-07-08T03:28:51;6.90;;;2.40;;
72590;SDS011;60625;51.212;5.952;2023-07-08T03:33:52;6.30;;;2.50;;
72590;SDS011;60625;51.212;5.952;2023-07-08T03:38:54;6.90;;;2.70;;
72590;SDS011;60625;51.212;5.952;2023-07-08T03:43:56;7.50;;;2.60;;
72590;SDS011;60625;51.212;5.952;2023-07-08T03:48:57;5.90;;;2.80;;
72590;SDS011;60625;51.212;5.952;2023-07-08T03:53:57;6.50;;;2.60;;
72590;SDS011;60625;51.212;5.952;2023-07-08T03:59:02;5.50;;;2.80;;
72590;SDS011;60625;51.212;5.952;2023-07-08T04:04:04;6.40;;;2.30;;
72590;SDS011;60625;51.212;5.952;2023-07-08T04:09:04;9.40;;;3.00;;
72590;SDS011;60625;51.212;5.952;2023-07-08T04:14:05;8.70;;;3.10;;
72590;SDS011;60625;51.212;5.952;2023-07-08T04:19:05;6.70;;;3.00;;
72590;SDS011;60625;51.212;5.952;2023-07-08T04:24:15;9.60;;;2.70;;
72590;SDS011;60625;51.212;5.952;2023-07-08T04:29:19;5.90;;;3.10;;
72590;SDS011;60625;51.212;5.952;2023-07-08T04:34:21;6.30;;;2.50;;
72590;SDS011;60625;51.212;5.952;2023-07-08T04:39:21;6.10;;;3.00;;
72590;SDS011;60625;51.212;5.952;2023-07-08T04:44:22;8.00;;;2.70;;
72590;SDS011;60625;51.212;5.952;2023-07-08T04:49:27;7.20;;;2.80;;
72590;SDS011;60625;51.212;5.952;2023-07-08T04:54:33;7.00;;;3.00;;
72590;SDS011;60625;51.212;5.952;2023-07-08T04:59:34;7.80;;;3.10;;
72590;SDS011;60625;51.212;5.952;2023-07-08T05:04:35;6.30;;;2.40;;
72590;SDS011;60625;51.212;5.952;2023-07-08T05:09:35;9.70;;;2.90;;
72590;SDS011;60625;51.212;5.952;2023-07-08T05:14:36;8.30;;;3.20;;
72590;SDS011;60625;51.212;5.952;2023-07-08T05:19:37;8.40;;;3.50;;
72590;SDS011;60625;51.212;5.952;2023-07-08T05:24:38;7.20;;;3.80;;
72590;SDS011;60625;51.212;5.952;2023-07-08T05:29:39;7.50;;;4.00;;
72590;SDS011;60625;51.212;5.952;2023-07-08T05:34:39;7.00;;;3.10;;
72590;SDS011;60625;51.212;5.952;2023-07-08T05:39:40;10.20;;;4.30;;
72590;SDS011;60625;51.212;5.952;2023-07-08T05:44:40;7.00;;;3.50;;
72590;SDS011;60625;51.212;5.952;2023-07-08T05:49:44;7.40;;;4.20;;
72590;SDS011;60625;51.212;5.952;2023-07-08T05:54:44;8.70;;;4.20;;
72590;SDS011;60625;51.212;5.952;2023-07-08T05:59:45;8.20;;;3.80;;
72590;SDS011;60625;51.212;5.952;2023-07-08T06:04:45;8.10;;;4.10;;
72590;SDS011;60625;51.212;5.952;2023-07-08T06:09:46;7.30;;;3.60;;
72590;SDS011;60625;51.212;5.952;2023-07-08T06:14:47;10.00;;;4.60;;
72590;SDS011;60625;51.212;5.952;2023-07-08T06:19:48;7.10;;;3.50;;
72590;SDS011;60625;51.212;5.952;2023-07-08T06:24:49;6.60;;;3.50;;
72590;SDS011;60625;51.212;5.952;2023-07-08T06:29:49;9.60;;;3.90;;
72590;SDS011;60625;51.212;5.952;2023-07-08T06:34:50;12.40;;;4.80;;
72590;SDS011;60625;51.212;5.952;2023-07-08T06:39:50;9.40;;;4.10;;
72590;SDS011;60625;51.212;5.952;2023-07-08T06:44:51;9.10;;;4.20;;
72590;SDS011;60625;51.212;5.952;2023-07-08T06:49:51;8.70;;;4.20;;
72590;SDS011;60625;51.212;5.952;2023-07-08T06:54:52;11.70;;;5.20;;
72590;SDS011;60625;51.212;5.952;2023-07-08T06:59:53;10.30;;;4.80;;
72590;SDS011;60625;51.212;5.952;2023-07-08T07:04:53;12.20;;;5.20;;
72590;SDS011;60625;51.212;5.952;2023-07-08T07:09:55;10.40;;;5.40;;
72590;SDS011;60625;51.212;5.952;2023-07-08T07:14:56;9.50;;;5.00;;
72590;SDS011;60625;51.212;5.952;2023-07-08T07:19:56;9.70;;;4.80;;
72590;SDS011;60625;51.212;5.952;2023-07-08T07:24:58;11.70;;;5.20;;
72590;SDS011;60625;51.212;5.952;2023-07-08T07:30:00;13.20;;;4.70;;
72590;SDS011;60625;51.212;5.952;2023-07-08T07:35:00;12.70;;;5.70;;
72590;SDS011;60625;51.212;5.952;2023-07-08T07:40:01;11.30;;;5.60;;
72590;SDS011;60625;51.212;5.952;2023-07-08T07:45:02;12.30;;;5.70;;
72590;SDS011;60625;51.212;5.952;2023-07-08T07:50:05;11.10;;;4.90;;
72590;SDS011;60625;51.212;5.952;2023-07-08T07:55:07;11.10;;;5.50;;
72590;SDS011;60625;51.212;5.952;2023-07-08T08:00:09;11.20;;;5.50;;
72590;SDS011;60625;51.212;5.952;2023-07-08T08:05:13;11.30;;;6.10;;
72590;SDS011;60625;51.212;5.952;2023-07-08T08:10:14;11.80;;;5.40;;
72590;SDS011;60625;51.212;5.952;2023-07-08T08:15:15;14.00;;;5.90;;
72590;SDS011;60625;51.212;5.952;2023-07-08T08:20:16;14.20;;;5.60;;
72590;SDS011;60625;51.212;5.952;2023-07-08T08:25:19;11.10;;;5.90;;
72590;SDS011;60625;51.212;5.952;2023-07-08T08:30:21;10.00;;;6.00;;
72590;SDS011;60625;51.212;5.952;2023-07-08T08:35:22;14.10;;;6.20;;
72590;SDS011;60625;51.212;5.952;2023-07-08T08:40:23;12.90;;;5.70;;
72590;SDS011;60625;51.212;5.952;2023-07-08T08:45:25;12.00;;;5.40;;
72590;SDS011;60625;51.212;5.952;2023-07-08T08:50:51;9.70;;;5.10;;
72590;SDS011;60625;51.212;5.952;2023-07-08T08:56:24;10.10;;;5.40;;
72590;SDS011;60625;51.212;5.952;2023-07-08T09:01:26;10.40;;;4.80;;
72590;SDS011;60625;51.212;5.952;2023-07-08T09:06:32;10.20;;;4.40;;
72590;SDS011;60625;51.212;5.952;2023-07-08T09:11:57;10.70;;;4.60;;
72590;SDS011;60625;51.212;5.952;2023-07-08T09:22:59;9.40;;;4.70;;
72590;SDS011;60625;51.212;5.952;2023-07-08T09:28:07;14.00;;;5.10;;
72590;SDS011;60625;51.212;5.952;2023-07-08T09:33:09;10.10;;;5.40;;
72590;SDS011;60625;51.212;5.952;2023-07-08T09:38:17;10.30;;;4.90;;
72590;SDS011;60625;51.212;5.952;2023-07-08T09:43:30;12.50;;;5.80;;
72590;SDS011;60625;51.212;5.952;2023-07-08T09:48:37;9.60;;;5.20;;
72590;SDS011;60625;51.212;5.952;2023-07-08T09:53:38;12.10;;;5.90;;
72590;SDS011;60625;51.212;5.952;2023-07-08T09:58:41;9.50;;;5.40;;
72590;SDS011;60625;51.212;5.952;2023-07-08T10:03:49;10.10;;;5.10;;
72590;SDS011;60625;51.212;5.952;2023-07-08T10:08:53;10.10;;;5.00;;
72590;SDS011;60625;51.212;5.952;2023-07-08T10:14:04;14.20;;;5.90;;
72590;SDS011;60625;51.212;5.952;2023-07-08T10:19:25;9.40;;;4.80;;
72590;SDS011;60625;51.212;5.952;2023-07-08T10:24:42;11.80;;;5.20;;
72590;SDS011;60625;51.212;5.952;2023-07-08T10:30:03;10.70;;;5.40;;
72590;SDS011;60625;51.212;5.952;2023-07-08T10:35:27;14.00;;;5.70;;
72590;SDS011;60625;51.212;5.952;2023-07-08T10:45:57;11.60;;;5.50;;
72590;SDS011;60625;51.212;5.952;2023-07-08T10:51:16;10.20;;;5.40;;
72590;SDS011;60625;51.212;5.952;2023-07-08T10:56:44;12.80;;;5.20;;
72590;SDS011;60625;51.212;5.952;2023-07-08T11:02:23;8.70;;;4.90;;
72590;SDS011;60625;51.212;5.952;2023-07-08T11:07:59;12.60;;;5.60;;
72590;SDS011;60625;51.212;5.952;2023-07-08T11:13:12;11.10;;;5.50;;
72590;SDS011;60625;51.212;5.952;2023-07-08T11:18:25;10.00;;;4.90;;
72590;SDS011;60625;51.212;5.952;2023-07-08T11:23:38;10.30;;;5.00;;
72590;SDS011;60625;51.212;5.952;2023-07-08T11:28:43;9.50;;;4.60;;
72590;SDS011;60625;51.212;5.952;2023-07-08T11:33:45;9.50;;;5.00;;
72590;SDS011;60625;51.212;5.952;2023-07-08T11:38:53;8.70;;;5.10;;
72590;SDS011;60625;51.212;5.952;2023-07-08T11:43:59;9.20;;;4.50;;
72590;SDS011;60625;51.212;5.952;2023-07-08T11:49:10;10.10;;;4.40;;
72590;SDS011;60625;51.212;5.952;2023-07-08T11:54:27;7.60;;;4.80;;
72590;SDS011;60625;51.212;5.952;2023-07-08T11:59:38;11.40;;;4.90;;
72590;SDS011;60625;51.212;5.952;2023-07-08T12:04:59;10.10;;;4.50;;
72590;SDS011;60625;51.212;5.952;2023-07-08T12:10:22;11.60;;;5.00;;
72590;SDS011;60625;51.212;5.952;2023-07-08T12:15:32;8.90;;;4.40;;
72590;SDS011;60625;51.212;5.952;2023-07-08T12:20:36;9.60;;;4.90;;
72590;SDS011;60625;51.212;5.952;2023-07-08T12:25:38;7.30;;;4.50;;
72590;SDS011;60625;51.212;5.952;2023-07-08T12:30:41;9.60;;;4.40;;
72590;SDS011;60625;51.212;5.952;2023-07-08T12:35:44;9.50;;;5.00;;
72590;SDS011;60625;51.212;5.952;2023-07-08T12:40:45;8.80;;;4.10;;
72590;SDS011;60625;51.212;5.952;2023-07-08T12:45:46;9.40;;;4.30;;
72590;SDS011;60625;51.212;5.952;2023-07-08T12:50:47;9.60;;;4.60;;
72590;SDS011;60625;51.212;5.952;2023-07-08T12:55:51;10.80;;;4.30;;
72590;SDS011;60625;51.212;5.952;2023-07-08T13:00:57;9.10;;;4.30;;
72590;SDS011;60625;51.212;5.952;2023-07-08T13:05:59;8.60;;;4.40;;
72590;SDS011;60625;51.212;5.952;2023-07-08T13:11:02;10.00;;;4.80;;
72590;SDS011;60625;51.212;5.952;2023-07-08T13:16:04;9.30;;;4.50;;
72590;SDS011;60625;51.212;5.952;2023-07-08T13:21:10;9.90;;;5.00;;
72590;SDS011;60625;51.212;5.952;2023-07-08T13:26:24;8.20;;;5.10;;
72590;SDS011;60625;51.212;5.952;2023-07-08T13:31:33;9.00;;;4.80;;
72590;SDS011;60625;51.212;5.952;2023-07-08T13:36:39;8.80;;;4.50;;
72590;SDS011;60625;51.212;5.952;2023-07-08T13:41:45;11.20;;;4.80;;
72590;SDS011;60625;51.212;5.952;2023-07-08T13:46:57;11.50;;;5.10;;
72590;SDS011;60625;51.212;5.952;2023-07-08T13:57:16;11.00;;;5.20;;
72590;SDS011;60625;51.212;5.952;2023-07-08T14:02:21;11.70;;;4.60;;
72590;SDS011;60625;51.212;5.952;2023-07-08T14:07:27;9.40;;;4.80;;
72590;SDS011;60625;51.212;5.952;2023-07-08T14:12:29;8.90;;;5.40;;
72590;SDS011;60625;51.212;5.952;2023-07-08T14:17:32;7.80;;;4.50;;
72590;SDS011;60625;51.212;5.952;2023-07-08T14:22:32;8.90;;;4.60;;
72590;SDS011;60625;51.212;5.952;2023-07-08T14:27:33;7.60;;;4.40;;
72590;SDS011;60625;51.212;5.952;2023-07-08T14:32:33;9.50;;;4.50;;
72590;SDS011;60625;51.212;5.952;2023-07-08T14:37:34;9.10;;;4.80;;
72590;SDS011;60625;51.212;5.952;2023-07-08T14:42:34;9.50;;;4.90;;
72590;SDS011;60625;51.212;5.952;2023-07-08T14:47:35;8.00;;;4.30;;
72590;SDS011;60625;51.212;5.952;2023-07-08T14:52:35;9.50;;;4.60;;
72590;SDS011;60625;51.212;5.952;2023-07-08T14:57:54;8.90;;;4.70;;
72590;SDS011;60625;51.212;5.952;2023-07-08T15:02:56;13.10;;;5.70;;
72590;SDS011;60625;51.212;5.952;2023-07-08T15:08:00;10.00;;;5.60;;
72590;SDS011;60625;51.212;5.952;2023-07-08T15:13:03;9.00;;;4.70;;
72590;SDS011;60625;51.212;5.952;2023-07-08T15:18:12;12.30;;;5.20;;
72590;SDS011;60625;51.212;5.952;2023-07-08T15:23:14;9.70;;;4.60;;
72590;SDS011;60625;51.212;5.952;2023-07-08T15:33:36;9.40;;;6.10;;
72590;SDS011;60625;51.212;5.952;2023-07-08T15:38:37;11.10;;;5.60;;
72590;SDS011;60625;51.212;5.952;2023-07-08T15:43:38;10.50;;;5.20;;
72590;SDS011;60625;51.212;5.952;2023-07-08T15:48:38;8.20;;;5.00;;
72590;SDS011;60625;51.212;5.952;2023-07-08T15:53:39;9.40;;;5.10;;
72590;SDS011;60625;51.212;5.952;2023-07-08T15:58:41;10.40;;;4.60;;
72590;SDS011;60625;51.212;5.952;2023-07-08T16:03:43;9.40;;;5.10;;
72590;SDS011;60625;51.212;5.952;2023-07-08T16:08:45;10.30;;;4.90;;
72590;SDS011;60625;51.212;5.952;2023-07-08T16:13:46;8.90;;;4.90;;
72590;SDS011;60625;51.212;5.952;2023-07-08T16:18:48;8.90;;;4.30;;
72590;SDS011;60625;51.212;5.952;2023-07-08T16:23:49;13.30;;;5.30;;
72590;SDS011;60625;51.212;5.952;2023-07-08T16:28:53;9.20;;;5.60;;
72590;SDS011;60625;51.212;5.952;2023-07-08T16:33:54;8.90;;;5.30;;
72590;SDS011;60625;51.212;5.952;2023-07-08T16:38:55;10.40;;;4.70;;
72590;SDS011;60625;51.212;5.952;2023-07-08T16:43:59;9.50;;;5.00;;
72590;SDS011;60625;51.212;5.952;2023-07-08T16:49:00;9.90;;;5.40;;
72590;SDS011;60625;51.212;5.952;2023-07-08T16:54:10;9.90;;;4.90;;
72590;SDS011;60625;51.212;5.952;2023-07-08T16:59:13;9.50;;;5.20;;
72590;SDS011;60625;51.212;5.952;2023-07-08T17:04:15;11.30;;;5.20;;
72590;SDS011;60625;51.212;5.952;2023-07-08T17:09:16;14.90;;;6.20;;
72590;SDS011;60625;51.212;5.952;2023-07-08T17:14:17;12.40;;;5.80;;
72590;SDS011;60625;51.212;5.952;2023-07-08T17:19:17;10.60;;;5.90;;
72590;SDS011;60625;51.212;5.952;2023-07-08T17:24:18;9.90;;;5.10;;
72590;SDS011;60625;51.212;5.952;2023-07-08T17:29:22;10.70;;;5.70;;
72590;SDS011;60625;51.212;5.952;2023-07-08T17:34:26;10.10;;;5.80;;
72590;SDS011;60625;51.212;5.952;2023-07-08T17:39:27;13.10;;;5.50;;
72590;SDS011;60625;51.212;5.952;2023-07-08T17:44:28;13.00;;;6.80;;
72590;SDS011;60625;51.212;5.952;2023-07-08T17:49:28;10.40;;;5.00;;
72590;SDS011;60625;51.212;5.952;2023-07-08T17:54:28;9.10;;;5.60;;
72590;SDS011;60625;51.212;5.952;2023-07-08T17:59:31;11.00;;;5.30;;
72590;SDS011;60625;51.212;5.952;2023-07-08T18:04:31;11.20;;;6.10;;
72590;SDS011;60625;51.212;5.952;2023-07-08T18:09:33;14.30;;;7.70;;
72590;SDS011;60625;51.212;5.952;2023-07-08T18:14:34;10.40;;;5.90;;
72590;SDS011;60625;51.212;5.952;2023-07-08T18:19:34;13.90;;;5.90;;
72590;SDS011;60625;51.212;5.952;2023-07-08T18:24:35;13.60;;;6.00;;
72590;SDS011;60625;51.212;5.952;2023-07-08T18:29:36;9.90;;;5.90;;
72590;SDS011;60625;51.212;5.952;2023-07-08T18:34:40;9.30;;;5.80;;
72590;SDS011;60625;51.212;5.952;2023-07-08T18:39:40;15.30;;;6.20;;
72590;SDS011;60625;51.212;5.952;2023-07-08T18:44:42;12.10;;;6.80;;
72590;SDS011;60625;51.212;5.952;2023-07-08T18:49:43;12.00;;;5.40;;
72590;SDS011;60625;51.212;5.952;2023-07-08T18:54:43;12.70;;;6.60;;
72590;SDS011;60625;51.212;5.952;2023-07-08T18:59:44;12.20;;;5.90;;
72590;SDS011;60625;51.212;5.952;2023-07-08T19:04:45;12.10;;;6.30;;
72590;SDS011;60625;51.212;5.952;2023-07-08T19:09:45;13.20;;;6.20;;
72590;SDS011;60625;51.212;5.952;2023-07-08T19:14:46;12.40;;;6.00;;
72590;SDS011;60625;51.212;5.952;2023-07-08T19:19:48;11.60;;;5.80;;
72590;SDS011;60625;51.212;5.952;2023-07-08T19:24:50;14.50;;;6.90;;
72590;SDS011;60625;51.212;5.952;2023-07-08T19:29:52;12.90;;;6.00;;
72590;SDS011;60625;51.212;5.952;2023-07-08T19:34:52;16.60;;;6.10;;
72590;SDS011;60625;51.212;5.952;2023-07-08T19:39:52;10.70;;;5.60;;
72590;SDS011;60625;51.212;5.952;2023-07-08T19:44:53;38.90;;;7.90;;
72590;SDS011;60625;51.212;5.952;2023-07-08T19:49:54;21.90;;;6.70;;
72590;SDS011;60625;51.212;5.952;2023-07-08T19:54:54;20.60;;;7.20;;
72590;SDS011;60625;51.212;5.952;2023-07-08T19:59:56;13.40;;;6.00;;
72590;SDS011;60625;51.212;5.952;2023-07-08T20:04:56;18.60;;;7.30;;
72590;SDS011;60625;51.212;5.952;2023-07-08T20:09:56;12.90;;;7.00;;
72590;SDS011;60625;51.212;5.952;2023-07-08T20:14:59;13.00;;;7.70;;
72590;SDS011;60625;51.212;5.952;2023-07-08T20:19:59;18.10;;;7.30;;
72590;SDS011;60625;51.212;5.952;2023-07-08T20:25:00;15.20;;;6.30;;
72590;SDS011;60625;51.212;5.952;2023-07-08T20:30:00;18.80;;;7.80;;
72590;SDS011;60625;51.212;5.952;2023-07-08T20:35:01;25.90;;;7.40;;
72590;SDS011;60625;51.212;5.952;2023-07-08T20:40:02;26.10;;;7.40;;
72590;SDS011;60625;51.212;5.952;2023-07-08T20:45:04;25.90;;;8.00;;
72590;SDS011;60625;51.212;5.952;2023-07-08T20:50:16;32.50;;;8.10;;
72590;SDS011;60625;51.212;5.952;2023-07-08T20:55:19;31.30;;;8.30;;
72590;SDS011;60625;51.212;5.952;2023-07-08T21:00:30;16.60;;;7.50;;
72590;SDS011;60625;51.212;5.952;2023-07-08T21:05:31;18.30;;;7.30;;
72590;SDS011;60625;51.212;5.952;2023-07-08T21:10:32;18.50;;;6.60;;
72590;SDS011;60625;51.212;5.952;2023-07-08T21:15:32;18.70;;;6.40;;
72590;SDS011;60625;51.212;5.952;2023-07-08T21:20:33;12.50;;;6.20;;
72590;SDS011;60625;51.212;5.952;2023-07-08T21:25:34;18.80;;;8.10;;
72590;SDS011;60625;51.212;5.952;2023-07-08T21:30:35;14.40;;;7.40;;
72590;SDS011;60625;51.212;5.952;2023-07-08T21:35:36;14.10;;;7.60;;
72590;SDS011;60625;51.212;5.952;2023-07-08T21:40:46;16.20;;;6.50;;
72590;SDS011;60625;51.212;5.952;2023-07-08T21:45:48;20.10;;;8.20;;
72590;SDS011;60625;51.212;5.952;2023-07-08T21:50:52;15.20;;;7.70;;
72590;SDS011;60625;51.212;5.952;2023-07-08T21:55:58;18.10;;;8.40;;
72590;SDS011;60625;51.212;5.952;2023-07-08T22:00:59;16.60;;;8.00;;
72590;SDS011;60625;51.212;5.952;2023-07-08T22:05:59;15.90;;;7.60;;
72590;SDS011;60625;51.212;5.952;2023-07-08T22:11:00;17.80;;;7.30;;
72590;SDS011;60625;51.212;5.952;2023-07-08T22:16:04;13.80;;;7.70;;
72590;SDS011;60625;51.212;5.952;2023-07-08T22:21:12;15.00;;;8.00;;
72590;SDS011;60625;51.212;5.952;2023-07-08T22:26:16;19.40;;;7.60;;
72590;SDS011;60625;51.212;5.952;2023-07-08T22:31:33;13.30;;;8.50;;
72590;SDS011;60625;51.212;5.952;2023-07-08T22:36:35;17.20;;;8.10;;
72590;SDS011;60625;51.212;5.952;2023-07-08T22:41:50;17.10;;;8.60;;
72590;SDS011;60625;51.212;5.952;2023-07-08T22:46:52;19.60;;;8.00;;
72590;SDS011;60625;51.212;5.952;2023-07-08T22:51:55;15.30;;;7.90;;
72590;SDS011;60625;51.212;5.952;2023-07-08T22:56:57;14.80;;;8.70;;
72590;SDS011;60625;51.212;5.952;2023-07-08T23:01:57;20.70;;;8.40;;
72590;SDS011;60625;51.212;5.952;2023-07-08T23:06:58;15.90;;;8.30;;
72590;SDS011;60625;51.212;5.952;2023-07-08T23:11:58;21.60;;;8.30;;
72590;SDS011;60625;51.212;5.952;2023-07-08T23:16:59;16.60;;;8.90;;
72590;SDS011;60625;51.212;5.952;2023-07-08T23:21:59;15.10;;;6.80;;
72590;SDS011;60625;51.212;5.952;2023-07-08T23:27:00;13.20;;;7.00;;
72590;SDS011;60625;51.212;5.952;2023-07-08T23:32:00;14.50;;;7.80;;
72590;SDS011;60625;51.212;5.952;2023-07-08T23:37:04;17.10;;;8.50;;
72590;SDS011;60625;51.212;5.952;2023-07-08T23:42:07;19.80;;;8.50;;
72590;SDS011;60625;51.212;5.952;2023-07-08T23:47:21;24.70;;;12.10;;
72590;SDS011;60625;51.212;5.952;2023-07-08T23:52:22;26.60;;;8.80;;
72590;SDS011;60625;51.212;5.952;2023-07-08T23:57:24;14.20;;;8.20;;
